Time,TemperatureF,DewpointF,PressureIn,WindDirection,WindDirectionDegrees,WindSpeedMPH,WindSpeedGustMPH,Humidity,HourlyPrecipIn,Conditions,Clouds,dailyrainin,SoftwareType,DateUTC
2013-01-08 00:02:00,21.0,-17.0,-100.00,SW,216,6.0,9.0,17,0.00,,,0.00,,2013-01-08 07:02:00,
2013-01-08 00:12:00,21.0,-17.0,-100.00,SW,216,6.0,9.0,17,0.00,,,0.00,,2013-01-08 07:12:00,
2013-01-08 00:22:00,21.0,-17.0,-100.00,SW,216,6.0,9.0,17,0.00,,,0.00,,2013-01-08 07:22:00,
2013-01-08 00:52:00,18.0,-13.0,-100.00,SW,225,1.0,11.0,23,0.00,,,0.00,,2013-01-08 07:52:00,
2013-01-08 01:02:00,18.0,-13.0,-100.00,SW,225,1.0,11.0,23,0.00,,,0.00,,2013-01-08 08:02:00,
2013-01-08 01:12:00,18.0,-13.0,-100.00,SW,225,1.0,11.0,23,0.00,,,0.00,,2013-01-08 08:12:00,
2013-01-08 01:22:00,18.0,-13.0,-100.00,SW,225,1.0,11.0,23,0.00,,,0.00,,2013-01-08 08:22:00,
2013-01-08 01:53:00,20.0,-14.0,-100.00,WSW,239,7.0,10.0,21,0.00,,,0.00,,2013-01-08 08:53:00,
2013-01-08 02:02:00,20.0,-14.0,-100.00,WSW,239,7.0,10.0,21,0.00,,,0.00,,2013-01-08 09:02:00,
2013-01-08 02:12:00,20.0,-14.0,-100.00,WSW,239,7.0,10.0,21,0.00,,,0.00,,2013-01-08 09:12:00,
2013-01-08 02:22:00,20.0,-14.0,-100.00,WSW,239,7.0,10.0,21,0.00,,,0.00,,2013-01-08 09:22:00,
2013-01-08 02:52:00,19.0,-9.0,-100.00,SW,227,9.0,13.0,28,0.00,,,0.00,,2013-01-08 09:52:00,
2013-01-08 03:02:00,19.0,-9.0,-100.00,SW,227,9.0,13.0,28,0.00,,,0.00,,2013-01-08 10:02:00,
2013-01-08 03:12:00,19.0,-9.0,-100.00,SW,227,9.0,13.0,28,0.00,,,0.00,,2013-01-08 10:12:00,
2013-01-08 03:22:00,19.0,-9.0,-100.00,SW,227,9.0,13.0,28,0.00,,,0.00,,2013-01-08 10:22:00,
2013-01-08 03:52:00,19.0,-5.0,-100.00,WSW,240,6.0,14.0,34,0.00,,,0.00,,2013-01-08 10:52:00,
2013-01-08 04:02:00,19.0,-5.0,-100.00,WSW,240,6.0,14.0,34,0.00,,,0.00,,2013-01-08 11:02:00,
2013-01-08 04:12:00,19.0,-5.0,-100.00,WSW,240,6.0,14.0,34,0.00,,,0.00,,2013-01-08 11:12:00,
2013-01-08 04:22:00,19.0,-5.0,-100.00,WSW,240,6.0,14.0,34,0.00,,,0.00,,2013-01-08 11:22:00,
2013-01-08 04:53:00,17.0,-3.0,-100.00,NNE,15,3.0,7.0,40,0.00,,,0.00,,2013-01-08 11:53:00,
2013-01-08 05:03:00,17.0,-3.0,-100.00,NNE,15,3.0,7.0,40,0.00,,,0.00,,2013-01-08 12:03:00,
2013-01-08 05:12:00,17.0,-3.0,-100.00,NNE,15,3.0,7.0,40,0.00,,,0.00,,2013-01-08 12:12:00,
2013-01-08 05:22:00,17.0,-3.0,-100.00,NNE,15,3.0,7.0,40,0.00,,,0.00,,2013-01-08 12:22:00,
2013-01-08 05:53:00,15.0,-2.0,-100.00,ENE,76,3.0,9.0,45,0.00,,,0.00,,2013-01-08 12:53:00,
2013-01-08 06:03:00,15.0,-2.0,-100.00,ENE,76,3.0,9.0,45,0.00,,,0.00,,2013-01-08 13:03:00,
2013-01-08 06:12:00,15.0,-2.0,-100.00,ENE,76,3.0,9.0,45,0.00,,,0.00,,2013-01-08 13:12:00,
2013-01-08 06:22:00,15.0,-2.0,-100.00,ENE,76,3.0,9.0,45,0.00,,,0.00,,2013-01-08 13:22:00,
2013-01-08 06:53:00,16.0,-1.0,-100.00,West,262,4.0,11.0,47,0.00,,,0.00,,2013-01-08 13:53:00,
2013-01-08 07:02:00,16.0,-1.0,-100.00,West,262,4.0,11.0,47,0.00,,,0.00,,2013-01-08 14:02:00,
2013-01-08 07:12:00,16.0,-1.0,-100.00,West,262,4.0,11.0,47,0.00,,,0.00,,2013-01-08 14:12:00,
2013-01-08 07:23:00,16.0,-1.0,-100.00,West,262,4.0,11.0,47,0.00,,,0.00,,2013-01-08 14:23:00,
2013-01-08 07:53:00,15.0,2.0,-100.00,WNW,301,2.0,14.0,55,0.00,,,0.00,,2013-01-08 14:53:00,
2013-01-08 08:03:00,15.0,2.0,-100.00,WNW,301,2.0,14.0,55,0.00,,,0.00,,2013-01-08 15:03:00,
2013-01-08 08:12:00,15.0,2.0,-100.00,WNW,301,2.0,14.0,55,0.00,,,0.00,,2013-01-08 15:12:00,
2013-01-08 08:22:00,15.0,2.0,-100.00,WNW,301,2.0,14.0,55,0.00,,,0.00,,2013-01-08 15:22:00,
2013-01-08 08:53:00,15.0,8.0,-100.00,NE,41,2.0,6.0,73,0.00,,,0.00,,2013-01-08 15:53:00,
2013-01-08 09:03:00,15.0,8.0,-100.00,NE,41,2.0,6.0,73,0.00,,,0.00,,2013-01-08 16:03:00,
2013-01-08 09:12:00,15.0,8.0,-100.00,NE,41,2.0,6.0,73,0.00,,,0.00,,2013-01-08 16:12:00,
2013-01-08 09:22:00,15.0,8.0,-100.00,NE,41,2.0,6.0,73,0.00,,,0.00,,2013-01-08 16:22:00,
2013-01-08 09:53:00,24.0,13.0,-100.00,WNW,293,2.0,7.0,61,0.00,,,0.00,,2013-01-08 16:53:00,
2013-01-08 10:03:00,24.0,13.0,-100.00,WNW,293,2.0,7.0,61,0.00,,,0.00,,2013-01-08 17:03:00,
2013-01-08 10:13:00,24.0,13.0,-100.00,WNW,293,2.0,7.0,61,0.00,,,0.00,,2013-01-08 17:13:00,
2013-01-08 10:23:00,24.0,13.0,-100.00,WNW,293,2.0,7.0,61,0.00,,,0.00,,2013-01-08 17:23:00,
2013-01-08 10:54:00,21.0,11.0,-100.00,WNW,286,3.0,11.0,65,0.00,,,0.00,,2013-01-08 17:54:00,
2013-01-08 11:03:00,21.0,11.0,-100.00,WNW,286,3.0,11.0,65,0.00,,,0.00,,2013-01-08 18:03:00,
2013-01-08 11:13:00,21.0,11.0,-100.00,WNW,286,3.0,11.0,65,0.00,,,0.00,,2013-01-08 18:13:00,
2013-01-08 11:23:00,21.0,11.0,-100.00,WNW,286,3.0,11.0,65,0.00,,,0.00,,2013-01-08 18:23:00,
2013-01-08 11:53:00,20.0,12.0,-100.00,West,278,8.0,14.0,72,0.00,,,0.00,,2013-01-08 18:53:00,
2013-01-08 12:03:00,20.0,12.0,-100.00,West,278,8.0,14.0,72,0.00,,,0.00,,2013-01-08 19:03:00,
2013-01-08 12:12:00,20.0,12.0,-100.00,West,278,8.0,14.0,72,0.00,,,0.00,,2013-01-08 19:12:00,
2013-01-08 12:22:00,20.0,12.0,-100.00,West,278,8.0,14.0,72,0.00,,,0.00,,2013-01-08 19:22:00,
2013-01-08 12:53:00,20.0,12.0,-100.00,WNW,301,8.0,15.0,71,0.00,,,0.00,,2013-01-08 19:53:00,
2013-01-08 13:03:00,20.0,12.0,-100.00,WNW,301,8.0,15.0,71,0.00,,,0.00,,2013-01-08 20:03:00,
2013-01-08 13:12:00,20.0,12.0,-100.00,WNW,301,8.0,15.0,71,0.00,,,0.00,,2013-01-08 20:12:00,
2013-01-08 13:23:00,20.0,12.0,-100.00,WNW,301,8.0,15.0,71,0.00,,,0.00,,2013-01-08 20:23:00,
2013-01-08 13:54:00,24.0,13.0,-100.00,West,281,6.0,12.0,63,0.00,,,0.00,,2013-01-08 20:54:00,
2013-01-08 14:03:00,24.0,13.0,-100.00,West,281,6.0,12.0,63,0.00,,,0.00,,2013-01-08 21:03:00,
2013-01-08 14:12:00,24.0,13.0,-100.00,West,281,6.0,12.0,63,0.00,,,0.00,,2013-01-08 21:12:00,
2013-01-08 14:22:00,24.0,13.0,-100.00,West,281,6.0,12.0,63,0.00,,,0.00,,2013-01-08 21:22:00,
2013-01-08 14:53:00,22.0,12.0,-100.00,West,277,8.0,14.0,65,0.00,,,0.00,,2013-01-08 21:53:00,
2013-01-08 15:03:00,22.0,12.0,-100.00,West,277,8.0,14.0,65,0.00,,,0.00,,2013-01-08 22:03:00,
2013-01-08 15:12:00,22.0,12.0,-100.00,West,277,8.0,14.0,65,0.00,,,0.00,,2013-01-08 22:12:00,
2013-01-08 15:23:00,22.0,12.0,-100.00,West,277,8.0,14.0,65,0.00,,,0.00,,2013-01-08 22:23:00,
2013-01-08 15:53:00,26.0,14.0,-100.00,SE,130,1.0,11.0,61,0.00,,,0.00,,2013-01-08 22:53:00,
2013-01-08 16:02:00,26.0,14.0,-100.00,SE,130,1.0,11.0,61,0.00,,,0.00,,2013-01-08 23:02:00,
2013-01-08 16:12:00,26.0,14.0,-100.00,SE,130,1.0,11.0,61,0.00,,,0.00,,2013-01-08 23:12:00,
2013-01-08 16:22:00,26.0,14.0,-100.00,SE,130,1.0,11.0,61,0.00,,,0.00,,2013-01-08 23:22:00,
2013-01-08 16:53:00,19.0,12.0,-100.00,East,81,4.0,8.0,75,0.00,,,0.00,,2013-01-08 23:53:00,
2013-01-08 17:03:00,19.0,12.0,-100.00,East,81,4.0,8.0,75,0.00,,,0.00,,2013-01-09 00:03:00,
2013-01-08 17:12:00,19.0,12.0,-100.00,East,81,4.0,8.0,75,0.00,,,0.00,,2013-01-09 00:12:00,
2013-01-08 17:22:00,19.0,12.0,-100.00,East,81,4.0,8.0,75,0.00,,,0.00,,2013-01-09 00:22:00,
2013-01-08 17:53:00,16.0,12.0,-100.00,East,85,3.0,4.0,83,0.00,,,0.00,,2013-01-09 00:53:00,
2013-01-08 18:02:00,16.0,12.0,-100.00,East,85,3.0,4.0,83,0.00,,,0.00,,2013-01-09 01:02:00,
2013-01-08 18:12:00,16.0,12.0,-100.00,East,85,3.0,4.0,83,0.00,,,0.00,,2013-01-09 01:12:00,
2013-01-08 18:22:00,16.0,12.0,-100.00,East,85,3.0,4.0,83,0.00,,,0.00,,2013-01-09 01:22:00,
2013-01-08 18:52:00,16.0,11.0,-100.00,West,274,2.0,4.0,81,0.00,,,0.00,,2013-01-09 01:52:00,
2013-01-08 19:02:00,16.0,11.0,-100.00,West,274,2.0,4.0,81,0.00,,,0.00,,2013-01-09 02:02:00,
2013-01-08 19:12:00,16.0,11.0,-100.00,West,274,2.0,4.0,81,0.00,,,0.00,,2013-01-09 02:12:00,
2013-01-08 19:22:00,16.0,11.0,-100.00,West,274,2.0,4.0,81,0.00,,,0.00,,2013-01-09 02:22:00,
2013-01-08 19:53:00,15.0,11.0,-100.00,ENE,74,2.0,4.0,84,0.00,,,0.00,,2013-01-09 02:53:00,
2013-01-08 20:03:00,15.0,11.0,-100.00,ENE,74,2.0,4.0,84,0.00,,,0.00,,2013-01-09 03:03:00,
2013-01-08 20:12:00,15.0,11.0,-100.00,ENE,74,2.0,4.0,84,0.00,,,0.00,,2013-01-09 03:12:00,
2013-01-08 20:22:00,15.0,11.0,-100.00,ENE,74,2.0,4.0,84,0.00,,,0.00,,2013-01-09 03:22:00,
2013-01-08 20:53:00,15.0,11.0,-100.00,ENE,78,1.0,3.0,82,0.00,,,0.00,,2013-01-09 03:53:00,
2013-01-08 21:02:00,15.0,11.0,-100.00,ENE,78,1.0,3.0,82,0.00,,,0.00,,2013-01-09 04:02:00,
2013-01-08 21:12:00,15.0,11.0,-100.00,ENE,78,1.0,3.0,82,0.00,,,0.00,,2013-01-09 04:12:00,
2013-01-08 21:22:00,15.0,11.0,-100.00,ENE,78,1.0,3.0,82,0.00,,,0.00,,2013-01-09 04:22:00,
2013-01-08 21:52:00,15.0,11.0,-100.00,SE,135,2.0,5.0,85,0.00,,,0.00,,2013-01-09 04:52:00,
2013-01-08 22:03:00,15.0,11.0,-100.00,SE,135,2.0,5.0,85,0.00,,,0.00,,2013-01-09 05:03:00,
2013-01-08 22:12:00,15.0,11.0,-100.00,SE,135,2.0,5.0,85,0.00,,,0.00,,2013-01-09 05:12:00,
2013-01-08 22:22:00,15.0,11.0,-100.00,SE,135,2.0,5.0,85,0.00,,,0.00,,2013-01-09 05:22:00,
2013-01-08 22:53:00,15.0,11.0,-100.00,East,91,3.0,4.0,83,0.00,,,0.00,,2013-01-09 05:53:00,
2013-01-08 23:02:00,15.0,11.0,-100.00,East,91,3.0,4.0,83,0.00,,,0.00,,2013-01-09 06:02:00,
2013-01-08 23:12:00,15.0,11.0,-100.00,East,91,3.0,4.0,83,0.00,,,0.00,,2013-01-09 06:12:00,
2013-01-08 23:22:00,15.0,11.0,-100.00,East,91,3.0,4.0,83,0.00,,,0.00,,2013-01-09 06:22:00,
2013-01-08 23:52:00,17.0,11.0,-100.00,ESE,114,2.0,5.0,78,0.00,,,0.00,,2013-01-09 06:52:00,